createdAt,value
2018-08-22T00:02:11.055Z,2.27
2018-08-22T00:04:42.008Z,2.00
2018-08-22T00:07:10.135Z,2.40
2018-08-22T00:09:44.764Z,1.90
2018-08-22T00:12:19.110Z,2.30
2018-08-22T00:14:59.976Z,1.87
2018-08-22T00:17:28.077Z,1.83
2018-08-22T00:20:05.509Z,1.67
2018-08-22T00:22:47.398Z,1.87
2018-08-22T00:25:15.838Z,1.90
2018-08-22T00:27:44.103Z,1.77
2018-08-22T00:30:12.246Z,1.80
2018-08-22T00:32:47.526Z,1.73
2018-08-22T00:35:21.762Z,1.73
2018-08-22T00:37:50.140Z,2.13
2018-08-22T00:40:18.194Z,2.00
2018-08-22T00:42:52.763Z,1.87
2018-08-22T00:45:23.687Z,1.87
2018-08-22T00:47:51.962Z,2.00
2018-08-22T00:50:20.122Z,1.80
2018-08-22T00:52:51.169Z,1.77
2018-08-22T00:55:19.277Z,1.90
2018-08-22T00:57:51.702Z,1.80
2018-08-22T01:00:31.315Z,1.80
2018-08-22T01:02:59.422Z,2.40
2018-08-22T01:05:34.045Z,2.20
2018-08-22T01:08:04.775Z,1.80
2018-08-22T01:10:32.828Z,1.60
2018-08-22T01:13:08.274Z,2.10
2018-08-22T01:15:39.054Z,2.10
2018-08-22T01:18:07.421Z,1.67
2018-08-22T01:20:38.372Z,2.23
2018-08-22T01:23:08.585Z,1.73
2018-08-22T01:25:36.662Z,2.03
2018-08-22T01:28:10.736Z,1.93
2018-08-22T01:30:38.993Z,2.20
2018-08-22T01:33:07.173Z,1.77
2018-08-22T01:35:41.375Z,1.77
2018-08-22T01:38:14.697Z,1.90
2018-08-22T01:40:45.125Z,2.67
2018-08-22T01:43:13.470Z,1.90
2018-08-22T01:45:41.577Z,1.97
2018-08-22T01:48:12.627Z,2.10
2018-08-22T01:50:42.743Z,1.77
2018-08-22T01:53:10.875Z,1.80
2018-08-22T01:55:41.024Z,1.77
2018-08-22T01:58:09.312Z,1.60
2018-08-22T02:00:37.404Z,1.90
2018-08-22T02:03:09.818Z,1.60
2018-08-22T02:05:40.670Z,1.63
2018-08-22T02:08:11.585Z,1.77
2018-08-22T02:10:40.474Z,1.57
2018-08-22T02:13:13.479Z,1.60
2018-08-22T02:15:43.533Z,1.70
2018-08-22T02:18:17.321Z,1.57
2018-08-22T02:20:45.594Z,1.33
2018-08-22T02:23:13.678Z,1.53
2018-08-22T02:25:44.520Z,1.50
2018-08-22T02:28:12.614Z,1.40
2018-08-22T02:30:43.735Z,1.67
2018-08-22T02:33:11.796Z,1.70
2018-08-22T02:35:42.829Z,1.30
2018-08-22T02:38:20.598Z,1.47
2018-08-22T02:40:54.297Z,1.67
2018-08-22T02:43:27.979Z,1.17
2018-08-22T02:45:56.221Z,1.50
2018-08-22T02:48:27.060Z,1.67
2018-08-22T02:50:58.403Z,1.60
2018-08-22T02:53:26.471Z,1.60
2018-08-22T02:56:00.300Z,1.60
2018-08-22T02:58:28.362Z,1.40
2018-08-22T03:00:59.187Z,1.70
2018-08-22T03:03:27.292Z,1.60
2018-08-22T03:06:01.138Z,1.70
2018-08-22T03:08:29.312Z,1.50
2018-08-22T03:10:59.421Z,1.60
2018-08-22T03:13:29.850Z,1.70
2018-08-22T03:15:58.621Z,1.67
2018-08-22T03:18:26.926Z,1.63
2018-08-22T03:20:57.189Z,1.50
2018-08-22T03:23:25.244Z,1.70
2018-08-22T03:25:59.701Z,1.53
2018-08-22T03:28:35.778Z,1.43
2018-08-22T03:31:04.031Z,1.70
2018-08-22T03:33:32.065Z,2.00
2018-08-22T03:36:06.421Z,1.37
2018-08-22T03:38:38.941Z,1.80
2018-08-22T03:41:09.921Z,1.33
2018-08-22T03:43:37.996Z,1.90
2018-08-22T03:46:08.966Z,1.73
2018-08-22T03:48:37.117Z,1.30
2018-08-22T03:51:13.675Z,1.50
2018-08-22T03:53:44.701Z,1.40
2018-08-22T03:56:14.994Z,1.53
2018-08-22T03:58:43.097Z,1.60
2018-08-22T04:01:16.410Z,1.30
2018-08-22T04:03:49.389Z,1.63
2018-08-22T04:06:17.670Z,1.40
2018-08-22T04:08:45.693Z,1.60
2018-08-22T04:11:15.858Z,1.50
2018-08-22T04:13:43.878Z,2.00
2018-08-22T04:16:18.532Z,1.90
2018-08-22T04:18:46.607Z,1.70
2018-08-22T04:21:17.765Z,1.60
2018-08-22T04:23:45.818Z,1.37
2018-08-22T04:26:21.262Z,1.97
2018-08-22T04:28:58.634Z,6.10
2018-08-22T04:31:38.499Z,3.20
2018-08-22T04:34:06.680Z,3.30
2018-08-22T04:36:38.978Z,2.77
2018-08-22T04:39:13.394Z,2.83
2018-08-22T04:41:44.287Z,2.20
2018-08-22T04:44:12.438Z,1.80
2018-08-22T04:46:45.391Z,1.97
2018-08-22T04:49:14.147Z,1.90
2018-08-22T04:51:52.273Z,1.97
2018-08-22T04:54:20.427Z,1.80
2018-08-22T04:56:52.713Z,1.90
2018-08-22T04:59:26.650Z,1.70
2018-08-22T05:01:54.708Z,1.60
2018-08-22T05:04:29.225Z,1.93
2018-08-22T05:07:00.239Z,2.03
2018-08-22T05:09:30.363Z,1.57
2018-08-22T05:11:58.445Z,1.77
2018-08-22T05:14:30.904Z,1.97
2018-08-22T05:17:04.067Z,1.80
2018-08-22T05:19:35.124Z,2.07
2018-08-22T05:22:09.526Z,2.10
2018-08-22T05:24:43.291Z,1.80
2018-08-22T05:27:11.658Z,2.03
2018-08-22T05:29:39.755Z,1.67
2018-08-22T05:32:15.045Z,2.10
2018-08-22T05:34:51.134Z,1.60
2018-08-22T05:37:19.111Z,1.70
2018-08-22T05:39:53.299Z,1.83
2018-08-22T05:42:23.723Z,1.90
2018-08-22T05:44:53.843Z,1.60
2018-08-22T05:47:21.917Z,1.70
2018-08-22T05:49:54.943Z,1.87
2018-08-22T05:52:22.981Z,1.80
2018-08-22T05:54:59.956Z,1.97
2018-08-22T05:57:28.201Z,1.60
2018-08-22T06:00:02.583Z,1.50
2018-08-22T06:02:34.941Z,1.80
2018-08-22T06:05:09.293Z,1.50
2018-08-22T06:07:40.401Z,1.73
2018-08-22T06:10:08.110Z,1.60
2018-08-22T06:12:40.642Z,2.67
2018-08-22T06:15:11.538Z,1.40
2018-08-22T06:17:39.647Z,1.50
2018-08-22T06:20:19.534Z,1.57
2018-08-22T06:22:47.651Z,2.13
2018-08-22T06:25:22.326Z,2.30
2018-08-22T06:27:50.663Z,1.67
2018-08-22T06:30:25.135Z,1.77
2018-08-22T06:33:02.443Z,1.60
2018-08-22T06:35:35.157Z,2.20
2018-08-22T06:38:03.293Z,1.60
2018-08-22T06:40:34.172Z,1.90
2018-08-22T06:43:02.205Z,2.07
2018-08-22T06:45:35.427Z,1.97
2018-08-22T06:48:03.892Z,1.80
2018-08-22T06:50:32.139Z,1.63
2018-08-22T06:53:00.298Z,2.03
2018-08-22T06:55:43.031Z,1.63
2018-08-22T06:58:11.451Z,2.37
2018-08-22T07:00:39.585Z,1.83
2018-08-22T07:03:13.945Z,2.20
2018-08-22T07:08:26.963Z,2.13
2018-08-22T07:10:59.011Z,2.07
2018-08-22T07:13:29.165Z,2.30
2018-08-22T07:15:57.446Z,1.83
2018-08-22T07:18:30.411Z,1.77
2018-08-22T07:20:59.035Z,1.70
2018-08-22T07:23:27.193Z,2.30
2018-08-22T07:25:55.255Z,1.60
2018-08-22T07:28:28.399Z,1.50
2018-08-22T07:30:58.591Z,1.90
2018-08-22T07:33:26.616Z,1.97
2018-08-22T07:36:00.419Z,1.50
2018-08-22T07:38:32.664Z,1.77
2018-08-22T07:41:03.942Z,1.60
2018-08-22T07:43:34.161Z,1.50
2018-08-22T07:46:02.217Z,1.20
2018-08-22T07:48:36.793Z,1.50
2018-08-22T07:51:09.270Z,1.50
2018-08-22T07:53:40.140Z,1.80
2018-08-22T07:56:11.305Z,1.50
2018-08-22T07:58:39.411Z,1.10
2018-08-22T08:01:09.885Z,1.30
2018-08-22T08:03:49.810Z,1.70
2018-08-22T08:06:17.942Z,1.60
2018-08-22T08:08:49.722Z,1.37
2018-08-22T08:11:18.190Z,1.50
2018-08-22T08:13:46.227Z,1.40
2018-08-22T08:16:19.349Z,1.60
2018-08-22T08:18:52.312Z,1.53
2018-08-22T08:21:27.622Z,1.30
2018-08-22T08:23:58.691Z,1.30
2018-08-22T08:26:26.832Z,1.60
2018-08-22T08:28:59.887Z,1.60
2018-08-22T08:31:38.086Z,1.27
2018-08-22T08:34:06.225Z,1.20
2018-08-22T08:36:39.500Z,1.40
2018-08-22T08:39:09.277Z,1.30
2018-08-22T08:41:37.457Z,1.33
2018-08-22T08:44:09.750Z,1.40
2018-08-22T08:46:42.972Z,1.40
2018-08-22T08:49:11.143Z,1.50
2018-08-22T08:52:10.297Z,1.40
2018-08-22T08:54:43.056Z,1.40
2018-08-22T08:57:11.125Z,1.43
2018-08-22T08:59:45.686Z,1.60
2018-08-22T09:02:16.786Z,1.20
2018-08-22T09:04:48.935Z,1.83
2018-08-22T09:07:19.041Z,1.70
2018-08-22T09:09:53.366Z,1.50
2018-08-22T09:12:24.329Z,1.70
2018-08-22T09:17:28.333Z,1.63
2018-08-22T09:19:56.626Z,1.20
2018-08-22T09:22:24.717Z,1.40
2018-08-22T09:25:00.217Z,1.47
2018-08-22T09:27:30.578Z,1.40
2018-08-22T09:30:01.539Z,1.40
2018-08-22T09:32:29.661Z,1.60
2018-08-22T09:35:06.164Z,1.50
2018-08-22T09:37:36.804Z,1.63
2018-08-22T09:40:05.073Z,1.40
2018-08-22T09:42:39.975Z,1.53
2018-08-22T09:45:08.019Z,1.30
2018-08-22T09:47:39.058Z,1.37
2018-08-22T09:50:07.292Z,1.83
2018-08-22T09:52:35.522Z,1.80
2018-08-22T09:55:10.710Z,1.70
2018-08-22T09:57:51.354Z,1.70
2018-08-22T10:00:29.290Z,1.57
2018-08-22T10:02:57.407Z,1.60
2018-08-22T10:05:29.736Z,1.77
2018-08-22T10:08:04.138Z,1.60
2018-08-22T10:10:38.537Z,1.80
2018-08-22T10:13:09.422Z,1.70
2018-08-22T10:15:37.534Z,1.60
2018-08-22T10:18:11.963Z,1.73
2018-08-22T10:20:44.479Z,1.43
2018-08-22T10:23:18.998Z,1.50
2018-08-22T10:25:51.934Z,1.30
2018-08-22T10:28:20.043Z,1.57
2018-08-22T10:30:50.838Z,1.53
2018-08-22T10:33:18.932Z,1.80
2018-08-22T10:35:58.618Z,1.50
2018-08-22T10:38:26.808Z,1.53
2018-08-22T10:41:00.719Z,1.77
2018-08-22T10:43:29.112Z,1.60
2018-08-22T10:45:57.188Z,1.60
2018-08-22T10:48:30.738Z,1.50
2018-08-22T10:51:12.573Z,1.77
2018-08-22T10:53:41.062Z,2.27
2018-08-22T10:56:09.331Z,1.93
2018-08-22T10:58:37.403Z,2.33
2018-08-22T11:01:10.608Z,1.70
2018-08-22T11:03:38.699Z,2.10
2018-08-22T11:06:06.724Z,1.93
2018-08-22T11:08:43.520Z,2.40
2018-08-22T11:11:15.605Z,1.80
2018-08-22T11:13:47.690Z,2.20
2018-08-22T11:16:15.822Z,2.10
2018-08-22T11:18:51.757Z,2.63
2018-08-22T11:21:32.994Z,3.20
2018-08-22T11:24:14.163Z,2.10
2018-08-22T11:29:41.927Z,2.30
2018-08-22T11:32:25.418Z,2.40
2018-08-22T11:34:52.823Z,2.50
2018-08-22T11:37:20.860Z,2.60
2018-08-22T11:39:53.334Z,3.00
2018-08-22T11:42:23.567Z,2.53
2018-08-22T11:44:54.115Z,2.80
2018-08-22T11:47:24.217Z,2.83
2018-08-22T11:49:52.268Z,2.85
2018-08-22T11:52:24.500Z,2.83
2018-08-22T11:54:52.730Z,2.90
2018-08-22T11:57:20.830Z,2.67
2018-08-22T11:59:55.119Z,2.90
2018-08-22T12:02:27.243Z,3.00
2018-08-22T12:04:55.365Z,2.67
2018-08-22T12:07:29.851Z,2.98
2018-08-22T12:10:05.855Z,2.98
2018-08-22T12:12:35.965Z,2.73
2018-08-22T12:15:04.218Z,2.60
2018-08-22T12:17:38.713Z,2.98
2018-08-22T12:20:15.211Z,2.70
2018-08-22T12:22:48.969Z,2.90
2018-08-22T12:25:17.330Z,3.40
2018-08-22T12:27:45.377Z,3.17
2018-08-22T12:30:13.656Z,2.80
2018-08-22T12:32:44.713Z,3.40
2018-08-22T12:35:12.797Z,3.00
2018-08-22T12:37:44.935Z,3.17
2018-08-22T12:40:13.105Z,3.02
2018-08-22T12:42:50.663Z,3.35
2018-08-22T12:45:18.778Z,3.25
2018-08-22T12:47:50.939Z,2.70
2018-08-22T12:50:21.157Z,2.80
2018-08-22T12:52:49.326Z,2.80
2018-08-22T12:55:23.818Z,3.30
2018-08-22T12:58:00.216Z,2.65
2018-08-22T13:00:39.823Z,3.00
2018-08-22T13:03:07.945Z,3.12
2018-08-22T13:05:38.067Z,3.15
2018-08-22T13:08:10.258Z,2.80
2018-08-22T13:10:38.385Z,3.20
2018-08-22T13:13:18.337Z,3.40
2018-08-22T13:15:46.524Z,3.35
2018-08-22T13:18:19.859Z,3.37
2018-08-22T13:20:55.121Z,3.20
2018-08-22T13:23:26.020Z,3.62
2018-08-22T13:25:54.070Z,3.47
2018-08-22T13:28:26.349Z,3.05
2018-08-22T13:30:56.677Z,2.98
2018-08-22T13:33:24.778Z,2.98
2018-08-22T13:36:01.547Z,3.15
2018-08-22T13:38:29.594Z,3.37
2018-08-22T13:41:00.415Z,3.12
2018-08-22T13:43:28.474Z,3.60
2018-08-22T13:46:00.663Z,3.08
2018-08-22T13:48:29.022Z,2.92
2018-08-22T13:50:57.191Z,3.35
2018-08-22T13:53:30.141Z,3.20
2018-08-22T13:56:01.271Z,3.05
2018-08-22T13:58:29.291Z,3.10
2018-08-22T14:01:03.347Z,3.12
2018-08-22T14:03:31.358Z,3.75
2018-08-22T14:06:02.465Z,3.57
2018-08-22T14:08:30.492Z,3.00
2018-08-22T14:11:05.115Z,3.40
2018-08-22T14:13:33.376Z,3.20
2018-08-22T14:16:07.660Z,3.40
2018-08-22T14:18:43.075Z,3.00
2018-08-22T14:21:15.537Z,3.03
2018-08-22T14:23:55.499Z,3.12
2018-08-22T14:26:23.854Z,3.40
2018-08-22T14:28:52.001Z,3.90
2018-08-22T14:31:22.959Z,3.62
2018-08-22T14:33:51.146Z,3.72
2018-08-22T14:36:24.049Z,3.87
2018-08-22T14:38:52.099Z,3.83
2018-08-22T14:43:59.912Z,3.47
2018-08-22T14:46:34.164Z,3.70
2018-08-22T14:49:06.358Z,3.77
2018-08-22T14:51:34.755Z,3.47
2018-08-22T14:54:02.857Z,3.35
2018-08-22T14:56:37.630Z,3.50
2018-08-22T14:59:05.937Z,3.00
2018-08-22T15:01:38.299Z,3.05
2018-08-22T15:04:15.947Z,3.52
2018-08-22T15:06:44.106Z,3.12
2018-08-22T15:09:18.398Z,3.67
2018-08-22T15:11:58.179Z,3.47
2018-08-22T15:14:33.478Z,3.60
2018-08-22T15:17:08.364Z,3.75
2018-08-22T15:19:38.643Z,3.30
2018-08-22T15:22:06.718Z,3.57
2018-08-22T15:24:37.698Z,3.40
2018-08-22T15:27:05.717Z,3.57
2018-08-22T15:29:36.582Z,3.50
2018-08-22T15:32:04.713Z,3.60
2018-08-22T15:34:46.227Z,3.50
2018-08-22T15:39:55.983Z,3.50
2018-08-22T15:42:31.251Z,3.70
2018-08-22T15:45:03.351Z,3.87
2018-08-22T15:47:31.490Z,3.87
2018-08-22T15:50:02.521Z,4.00
2018-08-22T15:52:32.548Z,4.13
2018-08-22T15:55:12.262Z,4.10
2018-08-22T15:57:53.138Z,3.67
2018-08-22T16:00:44.472Z,3.83
2018-08-22T16:03:24.611Z,3.23
2018-08-22T16:05:57.795Z,3.60
2018-08-22T16:08:27.211Z,4.03
2018-08-22T16:10:55.352Z,4.00
2018-08-22T16:13:29.670Z,3.90
2018-08-22T16:16:01.065Z,4.13
2018-08-22T16:18:33.119Z,4.00
2018-08-22T16:21:04.194Z,3.57
2018-08-22T16:23:35.084Z,3.90
2018-08-22T16:26:04.305Z,3.87
2018-08-22T16:28:44.200Z,4.07
2018-08-22T16:31:17.602Z,3.70
2018-08-22T16:33:48.464Z,4.20
2018-08-22T16:36:23.230Z,4.20
2018-08-22T16:38:51.349Z,4.00
2018-08-22T16:41:24.673Z,3.70
2018-08-22T16:43:55.594Z,4.07
2018-08-22T16:46:23.692Z,4.17
2018-08-22T16:49:05.289Z,3.67
2018-08-22T16:51:35.701Z,3.77
2018-08-22T16:54:10.085Z,3.93
2018-08-22T16:56:43.540Z,3.47
2018-08-22T16:59:14.450Z,3.60
2018-08-22T17:01:46.089Z,3.23
2018-08-22T17:04:17.076Z,4.17
2018-08-22T17:06:47.705Z,4.03
2018-08-22T17:09:15.724Z,3.20
2018-08-22T17:11:47.002Z,3.93
2018-08-22T17:14:17.122Z,3.40
2018-08-22T17:16:45.157Z,3.53
2018-08-22T17:19:13.884Z,3.50
2018-08-22T17:22:01.607Z,3.50
2018-08-22T17:24:30.180Z,3.57
2018-08-22T17:26:58.225Z,3.37
2018-08-22T17:29:27.106Z,3.60
2018-08-22T17:32:02.150Z,3.47
2018-08-22T17:34:36.914Z,3.90
2018-08-22T17:37:07.988Z,3.50
2018-08-22T17:39:43.545Z,3.77
2018-08-22T17:42:16.822Z,3.97
2018-08-22T17:44:47.700Z,3.73
2018-08-22T17:47:15.790Z,3.90
2018-08-22T17:49:49.174Z,4.00
2018-08-22T17:52:20.094Z,3.40
2018-08-22T17:54:48.254Z,3.80
2018-08-22T17:57:21.929Z,3.40
2018-08-22T17:59:53.998Z,4.00
2018-08-22T18:02:28.270Z,3.70
2018-08-22T18:05:01.200Z,3.57
2018-08-22T18:07:33.566Z,3.80
2018-08-22T18:10:05.099Z,3.67
2018-08-22T18:12:42.573Z,3.67
2018-08-22T18:15:12.668Z,3.60
2018-08-22T18:17:46.793Z,3.83
2018-08-22T18:20:14.923Z,3.80
2018-08-22T18:22:49.286Z,3.33
2018-08-22T18:25:20.154Z,4.20
2018-08-22T18:27:49.739Z,3.87
2018-08-22T18:30:17.911Z,3.60
2018-08-22T18:32:50.853Z,3.80
2018-08-22T18:35:21.953Z,4.17
2018-08-22T18:37:50.006Z,4.23
2018-08-22T18:40:20.079Z,3.87
2018-08-22T18:42:51.481Z,3.57
2018-08-22T18:45:20.161Z,3.93
2018-08-22T18:47:48.269Z,3.93
2018-08-22T18:50:25.043Z,4.13
2018-08-22T18:52:55.947Z,4.07
2018-08-22T18:55:26.588Z,4.03
2018-08-22T18:58:00.605Z,4.10
2018-08-22T19:00:36.315Z,4.07
2018-08-22T19:03:10.674Z,3.97
2018-08-22T19:05:42.720Z,3.90
2018-08-22T19:08:15.019Z,4.17
2018-08-22T19:10:46.452Z,4.10
2018-08-22T19:13:17.729Z,3.83
2018-08-22T19:15:49.316Z,4.00
2018-08-22T19:18:23.352Z,3.97
2018-08-22T19:20:58.370Z,3.97
2018-08-22T19:23:26.509Z,3.77
2018-08-22T19:26:01.251Z,4.20
2018-08-22T19:28:29.370Z,4.23
2018-08-22T19:31:09.077Z,4.07
2018-08-22T19:33:44.986Z,4.60
2018-08-22T19:36:15.396Z,4.27
2018-08-22T19:41:41.155Z,4.67
2018-08-22T19:44:12.264Z,4.50
2018-08-22T19:46:40.409Z,4.40
2018-08-22T19:49:17.092Z,4.70
2018-08-22T19:51:49.392Z,4.77
2018-08-22T19:54:20.353Z,4.50
2018-08-22T19:56:48.378Z,4.20
2018-08-22T19:59:23.531Z,5.20
2018-08-22T20:01:59.482Z,4.53
2018-08-22T20:04:27.708Z,4.70
2018-08-22T20:06:58.905Z,4.93
2018-08-22T20:09:41.342Z,5.90
2018-08-22T20:12:14.429Z,5.80
2018-08-22T20:14:51.877Z,4.83
2018-08-22T20:17:27.279Z,4.50
2018-08-22T20:19:55.445Z,4.80
2018-08-22T20:22:57.689Z,4.63
2018-08-22T20:25:28.688Z,4.43
2018-08-22T20:28:02.208Z,4.70
2018-08-22T20:30:32.213Z,4.43
2018-08-22T20:33:09.274Z,4.53
2018-08-22T20:35:44.783Z,4.20
2018-08-22T20:38:19.174Z,4.97
2018-08-22T20:40:58.491Z,4.93
2018-08-22T20:43:30.827Z,4.47
2018-08-22T20:46:04.797Z,4.40
2018-08-22T20:48:32.886Z,4.47
2018-08-22T20:51:08.368Z,4.67
2018-08-22T20:53:39.251Z,4.63
2018-08-22T20:56:07.308Z,4.63
2018-08-22T20:58:41.242Z,4.60
2018-08-22T21:01:09.371Z,4.83
2018-08-22T21:03:43.882Z,5.13
2018-08-22T21:06:18.556Z,5.43
2018-08-22T21:08:46.819Z,4.90
2018-08-22T21:11:19.797Z,5.40
2018-08-22T21:13:49.920Z,5.80
2018-08-22T21:16:20.765Z,5.60
2018-08-22T21:18:50.916Z,5.70
2018-08-22T21:21:22.949Z,6.33
2018-08-22T21:23:53.855Z,6.07
2018-08-22T21:26:34.902Z,6.97
2018-08-22T21:29:13.352Z,6.70
2018-08-22T21:31:42.184Z,5.13
2018-08-22T21:34:19.831Z,6.83
2018-08-22T21:36:49.983Z,5.87
2018-08-22T21:39:23.787Z,6.63
2018-08-22T21:41:54.925Z,7.60
2018-08-22T21:44:25.704Z,7.30
2018-08-22T21:47:04.054Z,8.10
2018-08-22T21:49:32.409Z,9.20
2018-08-22T21:52:01.360Z,9.37
2018-08-22T21:54:33.479Z,9.67
2018-08-22T21:57:01.718Z,9.63
2018-08-22T21:59:29.834Z,10.03
2018-08-22T22:02:05.918Z,10.73
2018-08-22T22:07:14.257Z,10.80
2018-08-22T22:09:44.257Z,11.57
2018-08-22T22:12:17.744Z,11.80
2018-08-22T22:14:46.064Z,11.57
2018-08-22T22:17:14.130Z,11.53
2018-08-22T22:19:45.073Z,11.07
2018-08-22T22:22:13.220Z,12.50
2018-08-22T22:24:45.292Z,12.20
2018-08-22T22:27:15.429Z,12.90
2018-08-22T22:29:43.583Z,12.90
2018-08-22T22:32:16.577Z,13.30
2018-08-22T22:34:44.705Z,13.03
2018-08-22T22:37:18.499Z,13.73
2018-08-22T22:39:46.746Z,12.03
2018-08-22T22:42:22.430Z,12.70
2018-08-22T22:44:53.736Z,15.93
2018-08-22T22:47:29.441Z,15.03
2018-08-22T22:50:00.246Z,15.83
2018-08-22T22:52:33.684Z,16.33
2018-08-22T22:55:09.599Z,15.33
2018-08-22T22:57:41.792Z,18.63
2018-08-22T23:00:14.016Z,15.07
2018-08-22T23:02:47.977Z,16.80
2018-08-22T23:05:16.088Z,15.37
2018-08-22T23:07:47.444Z,19.23
2018-08-22T23:10:17.557Z,16.40
2018-08-22T23:12:48.430Z,17.30
2018-08-22T23:15:23.303Z,17.90
2018-08-22T23:17:57.498Z,19.37
2018-08-22T23:21:01.997Z,17.30
2018-08-22T23:23:32.371Z,17.97
2018-08-22T23:26:09.636Z,18.47
2018-08-22T23:28:42.523Z,18.63
2018-08-22T23:31:18.373Z,18.77
2018-08-22T23:33:53.018Z,19.63
2018-08-22T23:36:25.200Z,21.00
2018-08-22T23:38:56.027Z,20.23
2018-08-22T23:41:24.083Z,20.57
2018-08-22T23:43:56.284Z,19.80
2018-08-22T23:46:24.563Z,21.37
2018-08-22T23:48:57.919Z,19.87
2018-08-22T23:51:25.988Z,21.57
2018-08-22T23:54:00.506Z,19.27
2018-08-22T23:56:35.073Z,19.40
2018-08-22T23:59:08.072Z,19.13
